createdAt,value
2022-09-20T03:39:10.852Z,100424.94
2022-09-20T03:42:24.765Z,100424.94
2022-09-20T03:45:59.206Z,100425.06
2022-09-20T03:49:27.677Z,100426.75
2022-09-20T03:52:30.212Z,100425.78
2022-09-20T03:55:45.083Z,100430.16
2022-09-20T03:59:10.718Z,100431.03
2022-09-20T04:02:50.457Z,100422.53
2022-09-20T04:06:20.866Z,100427.47
2022-09-20T04:09:44.581Z,100427.47
2022-09-20T04:13:00.592Z,100428.19
2022-09-20T04:16:40.329Z,100423.63
2022-09-20T04:19:58.568Z,100429.66
2022-09-20T04:23:15.641Z,100429.53
2022-09-20T04:26:27.151Z,100433.06
2022-09-20T04:30:00.799Z,100444.47
2022-09-20T04:33:27.585Z,100451.75
2022-09-20T04:37:03.699Z,100459.84
2022-09-20T04:40:23.571Z,100463.66
2022-09-20T04:43:53.746Z,100458.13
2022-09-20T04:47:25.204Z,100463.38
2022-09-20T04:51:05.457Z,100462.59
2022-09-20T04:54:41.816Z,100459.97
2022-09-20T04:58:05.533Z,100457.28
2022-09-20T05:01:19.674Z,100451.53
2022-09-20T05:04:44.448Z,100462.47
2022-09-20T05:08:16.393Z,100460.25
2022-09-20T05:11:37.607Z,100453.13
2022-09-20T05:15:11.377Z,100439.22
2022-09-20T05:18:43.648Z,100458.38
2022-09-20T05:21:58.462Z,100451.19
2022-09-20T05:25:07.773Z,100449.53
2022-09-20T05:28:13.791Z,100460.41
2022-09-20T05:31:25.162Z,100455.41
2022-09-20T05:34:46.146Z,100459.34
2022-09-20T05:38:20.780Z,100458.00
2022-09-20T05:42:05.679Z,100468.56
2022-09-20T05:45:25.199Z,100470.75
2022-09-20T05:48:52.776Z,100478.31
2022-09-20T05:52:19.643Z,100479.22
2022-09-20T05:55:34.589Z,100476.12
2022-09-20T05:58:55.698Z,100477.78
2022-09-20T06:02:21.560Z,100474.69
2022-09-20T06:06:09.140Z,100474.25
2022-09-20T06:09:36.510Z,100476.19
2022-09-20T06:13:17.529Z,100471.59
2022-09-20T06:16:48.348Z,100479.78
2022-09-20T06:19:59.894Z,100481.56
2022-09-20T06:23:05.510Z,100481.63
2022-09-20T06:26:17.427Z,100483.50
2022-09-20T06:29:30.294Z,100491.75
2022-09-20T06:32:34.596Z,100499.13
2022-09-20T06:35:45.397Z,100503.81
2022-09-20T06:39:28.332Z,100508.81
2022-09-20T06:42:30.874Z,100510.16
2022-09-20T06:45:33.589Z,100520.38
2022-09-20T06:48:39.840Z,100512.84
2022-09-20T06:51:43.487Z,100514.38
2022-09-20T06:54:53.795Z,100522.38
2022-09-20T06:57:57.135Z,100518.78
2022-09-20T07:00:59.593Z,100513.28
2022-09-20T07:04:03.156Z,100522.59
2022-09-20T07:07:09.658Z,100527.69
2022-09-20T07:10:12.661Z,100523.53
2022-09-20T07:13:15.026Z,100528.44
2022-09-20T07:16:18.037Z,100534.47
2022-09-20T07:19:20.870Z,100537.50
2022-09-20T07:22:23.674Z,100537.94
2022-09-20T07:25:25.916Z,100541.34
2022-09-20T07:28:30.205Z,100553.38
2022-09-20T07:31:32.868Z,100554.09
2022-09-20T07:34:35.549Z,100551.66
2022-09-20T07:37:41.288Z,100553.91
2022-09-20T07:40:46.201Z,100553.81
2022-09-20T07:43:50.700Z,100556.97
2022-09-20T07:47:00.453Z,100557.97
2022-09-20T07:50:04.170Z,100562.00
2022-09-20T07:53:06.851Z,100558.72
2022-09-20T07:56:13.765Z,100565.03
2022-09-20T07:59:16.695Z,100565.59
2022-09-20T08:02:19.187Z,100553.84
2022-09-20T08:05:21.803Z,100566.37
2022-09-20T08:08:24.523Z,100557.12
2022-09-20T08:11:29.310Z,100559.09
2022-09-20T08:14:31.735Z,100552.97
2022-09-20T08:17:34.447Z,100552.88
2022-09-20T08:20:38.527Z,100554.38
2022-09-20T08:23:43.678Z,100555.91
2022-09-20T08:26:46.595Z,100557.59
2022-09-20T08:29:53.986Z,100559.66
2022-09-20T08:32:56.415Z,100553.41
2022-09-20T08:35:59.340Z,100556.66
2022-09-20T08:42:39.140Z,100555.19
2022-09-20T08:45:45.085Z,100548.31
2022-09-20T08:48:48.161Z,100549.09
2022-09-20T08:51:50.650Z,100561.94
2022-09-20T08:54:53.757Z,100567.59
2022-09-20T08:57:58.096Z,100561.41
2022-09-20T09:01:01.408Z,100575.03
2022-09-20T09:04:19.157Z,100570.34
2022-09-20T09:07:24.838Z,100571.53
2022-09-20T09:10:42.698Z,100562.28
2022-09-20T09:14:30.898Z,100570.25
2022-09-20T09:17:33.516Z,100569.84
2022-09-20T09:20:43.366Z,100561.47
2022-09-20T09:24:06.524Z,100562.03
2022-09-20T09:27:19.706Z,100566.09
2022-09-20T09:30:34.685Z,100558.28
2022-09-20T09:33:44.069Z,100557.59
2022-09-20T09:36:46.451Z,100551.19
2022-09-20T09:40:06.686Z,100555.47
2022-09-20T09:43:21.473Z,100554.12
2022-09-20T09:46:27.019Z,100545.09
2022-09-20T09:49:36.565Z,100546.59
2022-09-20T09:52:39.642Z,100543.19
2022-09-20T09:56:19.622Z,100544.72
2022-09-20T09:59:47.933Z,100549.16
2022-09-20T10:03:25.846Z,100550.94
2022-09-20T10:06:47.439Z,100549.03
2022-09-20T10:10:09.980Z,100549.88
2022-09-20T10:13:21.908Z,100550.66
2022-09-20T10:16:59.037Z,100543.13
2022-09-20T10:20:08.091Z,100544.53
2022-09-20T10:23:51.372Z,100543.56
2022-09-20T10:27:19.217Z,100542.63
2022-09-20T10:30:23.259Z,100543.41
2022-09-20T10:33:56.109Z,100541.53
2022-09-20T10:37:00.809Z,100544.72
2022-09-20T10:40:46.506Z,100534.28
2022-09-20T10:44:07.651Z,100532.31
2022-09-20T10:47:22.161Z,100532.84
2022-09-20T10:50:35.777Z,100526.19
2022-09-20T10:54:17.261Z,100516.59
2022-09-20T10:57:38.322Z,100508.63
2022-09-20T11:00:45.234Z,100511.59
2022-09-20T11:04:25.901Z,100507.94
2022-09-20T11:07:43.196Z,100515.84
2022-09-20T11:10:48.829Z,100519.31
2022-09-20T11:14:06.737Z,100521.13
2022-09-20T11:17:22.691Z,100514.28
2022-09-20T11:20:29.389Z,100520.81
2022-09-20T11:23:45.379Z,100516.88
2022-09-20T11:26:58.984Z,100514.69
2022-09-20T11:30:10.139Z,100520.31
2022-09-20T11:33:21.384Z,100525.75
2022-09-20T11:36:52.190Z,100525.97
2022-09-20T11:39:56.400Z,100527.34
2022-09-20T11:43:02.375Z,100519.25
2022-09-20T11:46:10.791Z,100508.97
2022-09-20T11:49:45.946Z,100508.78
2022-09-20T11:53:08.990Z,100494.25
2022-09-20T11:56:20.210Z,100496.75
2022-09-20T11:59:41.070Z,100497.84
2022-09-20T12:02:51.509Z,100483.88
2022-09-20T12:05:58.549Z,100488.31
2022-09-20T12:09:06.272Z,100490.75
2022-09-20T12:12:37.479Z,100479.44
2022-09-20T12:15:40.568Z,100476.34
2022-09-20T12:18:53.842Z,100472.47
2022-09-20T12:21:59.093Z,100481.19
2022-09-20T12:25:38.184Z,100473.91
2022-09-20T12:28:48.914Z,100477.66
2022-09-20T12:31:56.802Z,100474.84
2022-09-20T12:35:00.414Z,100470.25
2022-09-20T12:38:21.606Z,100469.25
2022-09-20T12:41:28.580Z,100474.78
2022-09-20T12:44:49.956Z,100471.94
2022-09-20T12:47:55.767Z,100469.69
2022-09-20T12:51:43.126Z,100466.84
2022-09-20T12:54:52.221Z,100472.53
2022-09-20T12:57:58.709Z,100479.06
2022-09-20T13:01:04.790Z,100468.81
2022-09-20T13:04:50.117Z,100459.31
2022-09-20T13:07:59.295Z,100460.91
2022-09-20T13:11:17.526Z,100458.69
2022-09-20T13:14:26.171Z,100462.59
2022-09-20T13:17:31.661Z,100459.00
2022-09-20T13:20:35.101Z,100457.59
2022-09-20T13:23:50.941Z,100455.31
2022-09-20T13:26:55.994Z,100450.44
2022-09-20T13:30:19.014Z,100460.63
2022-09-20T13:33:24.132Z,100469.16
2022-09-20T13:36:30.178Z,100466.97
2022-09-20T13:39:36.778Z,100466.03
2022-09-20T13:42:39.573Z,100465.25
2022-09-20T13:45:43.427Z,100458.38
2022-09-20T13:49:07.486Z,100464.84
2022-09-20T13:52:31.130Z,100458.19
2022-09-20T13:55:35.866Z,100454.47
2022-09-20T13:58:38.479Z,100452.53
2022-09-20T14:01:48.218Z,100451.47
2022-09-20T14:04:54.642Z,100463.50
2022-09-20T14:08:00.529Z,100461.22
2022-09-20T14:11:05.399Z,100459.38
2022-09-20T14:14:12.298Z,100460.91
2022-09-20T14:17:19.046Z,100459.31
2022-09-20T14:20:23.898Z,100470.41
2022-09-20T14:23:28.898Z,100476.34
2022-09-20T14:26:40.256Z,100485.25
2022-09-20T14:29:45.928Z,100487.69
2022-09-20T14:32:55.320Z,100477.19
2022-09-20T14:35:58.408Z,100480.31
2022-09-20T14:39:04.675Z,100484.66
2022-09-20T14:42:19.879Z,100483.00
2022-09-20T14:45:31.719Z,100483.66
2022-09-20T14:48:37.559Z,100482.38
2022-09-20T14:51:40.400Z,100487.78
2022-09-20T14:54:43.150Z,100484.28
2022-09-20T14:57:46.939Z,100488.53
2022-09-20T15:00:55.455Z,100487.44
2022-09-20T15:03:58.554Z,100483.25
2022-09-20T15:07:08.801Z,100484.59
2022-09-20T15:10:15.308Z,100487.87
2022-09-20T15:13:18.211Z,100489.22
2022-09-20T15:16:21.101Z,100494.59
2022-09-20T15:19:23.905Z,100501.87
2022-09-20T15:22:27.433Z,100507.47
2022-09-20T15:25:30.178Z,100515.63
2022-09-20T15:28:33.932Z,100516.06
2022-09-20T15:31:36.731Z,100531.31
2022-09-20T15:34:39.342Z,100525.31
2022-09-20T15:37:42.134Z,100534.72
2022-09-20T15:40:47.550Z,100533.78
2022-09-20T15:43:50.289Z,100539.81
2022-09-20T15:46:53.314Z,100549.78
2022-09-20T15:49:56.021Z,100551.84
2022-09-20T15:53:00.051Z,100551.88
2022-09-20T15:56:14.335Z,100552.69
